sensor_id;sensor_type;location;lat;lon;timestamp;temperature;humidity
5560;DHT22;2803;47.916;8.074;2022-12-07T00:00:53;6.50;99.90
5560;DHT22;2803;47.916;8.074;2022-12-07T00:03:20;6.20;99.90
5560;DHT22;2803;47.916;8.074;2022-12-07T00:05:46;5.90;99.90
5560;DHT22;2803;47.916;8.074;2022-12-07T00:08:13;6.10;99.90
5560;DHT22;2803;47.916;8.074;2022-12-07T00:10:39;6.20;99.90
5560;DHT22;2803;47.916;8.074;2022-12-07T00:13:06;6.30;99.90
5560;DHT22;2803;47.916;8.074;2022-12-07T00:15:35;6.50;99.90
5560;DHT22;2803;47.916;8.074;2022-12-07T00:18:02;6.40;99.90
5560;DHT22;2803;47.916;8.074;2022-12-07T00:20:28;6.50;99.90
5560;DHT22;2803;47.916;8.074;2022-12-07T00:22:55;6.40;99.90
5560;DHT22;2803;47.916;8.074;2022-12-07T00:25:22;6.40;99.90
5560;DHT22;2803;47.916;8.074;2022-12-07T00:27:49;6.40;99.90
5560;DHT22;2803;47.916;8.074;2022-12-07T00:30:16;6.20;99.90
5560;DHT22;2803;47.916;8.074;2022-12-07T00:32:44;6.20;99.90
5560;DHT22;2803;47.916;8.074;2022-12-07T00:35:11;5.90;99.90
5560;DHT22;2803;47.916;8.074;2022-12-07T00:37:38;6.00;99.90
5560;DHT22;2803;47.916;8.074;2022-12-07T00:40:06;6.10;99.90
5560;DHT22;2803;47.916;8.074;2022-12-07T00:42:33;6.20;99.90
5560;DHT22;2803;47.916;8.074;2022-12-07T00:45:00;6.10;99.90
5560;DHT22;2803;47.916;8.074;2022-12-07T00:47:27;6.00;99.90
5560;DHT22;2803;47.916;8.074;2022-12-07T00:49:55;6.00;99.90
5560;DHT22;2803;47.916;8.074;2022-12-07T00:52:21;6.10;99.90
5560;DHT22;2803;47.916;8.074;2022-12-07T00:54:48;6.00;99.90
5560;DHT22;2803;47.916;8.074;2022-12-07T00:57:15;6.00;99.90
5560;DHT22;2803;47.916;8.074;2022-12-07T00:59:42;5.60;99.90
5560;DHT22;2803;47.916;8.074;2022-12-07T01:02:09;5.70;99.90
5560;DHT22;2803;47.916;8.074;2022-12-07T01:04:36;5.80;99.90
5560;DHT22;2803;47.916;8.074;2022-12-07T01:07:03;5.90;99.90
5560;DHT22;2803;47.916;8.074;2022-12-07T01:09:30;5.60;99.90
5560;DHT22;2803;47.916;8.074;2022-12-07T01:11:57;5.70;99.90
5560;DHT22;2803;47.916;8.074;2022-12-07T01:14:24;5.80;99.90
5560;DHT22;2803;47.916;8.074;2022-12-07T01:16:51;5.90;99.90
5560;DHT22;2803;47.916;8.074;2022-12-07T01:19:19;6.00;99.90
5560;DHT22;2803;47.916;8.074;2022-12-07T01:21:45;6.00;99.90
5560;DHT22;2803;47.916;8.074;2022-12-07T01:24:14;5.80;99.90
5560;DHT22;2803;47.916;8.074;2022-12-07T01:26:40;5.80;99.90
5560;DHT22;2803;47.916;8.074;2022-12-07T01:29:08;5.90;99.90
5560;DHT22;2803;47.916;8.074;2022-12-07T01:31:34;5.80;99.90
5560;DHT22;2803;47.916;8.074;2022-12-07T01:34:01;5.70;99.90
5560;DHT22;2803;47.916;8.074;2022-12-07T01:36:30;5.70;99.90
5560;DHT22;2803;47.916;8.074;2022-12-07T01:38:59;5.90;99.90
5560;DHT22;2803;47.916;8.074;2022-12-07T01:41:30;6.10;99.90
5560;DHT22;2803;47.916;8.074;2022-12-07T01:44:15;5.90;99.90
5560;DHT22;2803;47.916;8.074;2022-12-07T01:46:44;6.00;99.90
5560;DHT22;2803;47.916;8.074;2022-12-07T01:49:16;5.80;99.90
5560;DHT22;2803;47.916;8.074;2022-12-07T01:51:43;6.00;99.90
5560;DHT22;2803;47.916;8.074;2022-12-07T01:54:13;6.10;99.90
5560;DHT22;2803;47.916;8.074;2022-12-07T01:56:47;6.10;99.90
5560;DHT22;2803;47.916;8.074;2022-12-07T01:59:15;5.90;99.90
5560;DHT22;2803;47.916;8.074;2022-12-07T02:01:43;6.20;99.90
5560;DHT22;2803;47.916;8.074;2022-12-07T02:04:10;6.10;99.90
5560;DHT22;2803;47.916;8.074;2022-12-07T02:06:37;5.70;99.90
5560;DHT22;2803;47.916;8.074;2022-12-07T02:09:05;5.90;99.90
5560;DHT22;2803;47.916;8.074;2022-12-07T02:11:32;6.00;99.90
5560;DHT22;2803;47.916;8.074;2022-12-07T02:14:00;6.00;99.90
5560;DHT22;2803;47.916;8.074;2022-12-07T02:16:34;5.80;99.90
5560;DHT22;2803;47.916;8.074;2022-12-07T02:19:27;5.90;99.90
5560;DHT22;2803;47.916;8.074;2022-12-07T02:22:01;6.00;99.90
5560;DHT22;2803;47.916;8.074;2022-12-07T02:24:45;6.10;99.90
5560;DHT22;2803;47.916;8.074;2022-12-07T02:27:29;5.90;99.90
5560;DHT22;2803;47.916;8.074;2022-12-07T02:30:01;6.10;99.90
5560;DHT22;2803;47.916;8.074;2022-12-07T02:32:39;5.90;99.90
5560;DHT22;2803;47.916;8.074;2022-12-07T02:35:10;5.90;99.90
5560;DHT22;2803;47.916;8.074;2022-12-07T02:37:42;5.70;99.90
5560;DHT22;2803;47.916;8.074;2022-12-07T02:40:12;5.90;99.90
5560;DHT22;2803;47.916;8.074;2022-12-07T02:42:45;6.00;99.90
5560;DHT22;2803;47.916;8.074;2022-12-07T02:45:18;6.00;99.90
5560;DHT22;2803;47.916;8.074;2022-12-07T02:47:49;5.90;99.90
5560;DHT22;2803;47.916;8.074;2022-12-07T02:50:18;5.80;99.90
5560;DHT22;2803;47.916;8.074;2022-12-07T02:52:45;5.80;99.90
5560;DHT22;2803;47.916;8.074;2022-12-07T02:55:12;5.80;99.90
5560;DHT22;2803;47.916;8.074;2022-12-07T02:57:52;5.50;99.90
5560;DHT22;2803;47.916;8.074;2022-12-07T03:00:22;5.00;99.90
5560;DHT22;2803;47.916;8.074;2022-12-07T03:02:53;4.90;99.90
5560;DHT22;2803;47.916;8.074;2022-12-07T03:05:43;4.80;99.90
5560;DHT22;2803;47.916;8.074;2022-12-07T03:08:16;4.80;99.90
5560;DHT22;2803;47.916;8.074;2022-12-07T03:10:56;4.70;99.90
5560;DHT22;2803;47.916;8.074;2022-12-07T03:13:29;4.80;99.90
5560;DHT22;2803;47.916;8.074;2022-12-07T03:16:02;4.80;99.90
5560;DHT22;2803;47.916;8.074;2022-12-07T03:18:35;4.90;99.90
5560;DHT22;2803;47.916;8.074;2022-12-07T03:21:08;4.70;99.90
5560;DHT22;2803;47.916;8.074;2022-12-07T03:23:39;4.60;99.90
5560;DHT22;2803;47.916;8.074;2022-12-07T03:26:09;4.60;99.90
5560;DHT22;2803;47.916;8.074;2022-12-07T03:28:42;4.50;99.90
5560;DHT22;2803;47.916;8.074;2022-12-07T03:31:16;4.40;99.90
5560;DHT22;2803;47.916;8.074;2022-12-07T03:33:49;4.50;99.90
5560;DHT22;2803;47.916;8.074;2022-12-07T03:36:22;4.70;99.90
5560;DHT22;2803;47.916;8.074;2022-12-07T03:38:54;4.90;99.90
5560;DHT22;2803;47.916;8.074;2022-12-07T03:41:25;4.90;99.90
5560;DHT22;2803;47.916;8.074;2022-12-07T03:43:54;5.20;99.90
5560;DHT22;2803;47.916;8.074;2022-12-07T03:46:29;5.10;99.90
5560;DHT22;2803;47.916;8.074;2022-12-07T03:49:05;4.70;99.90
5560;DHT22;2803;47.916;8.074;2022-12-07T03:51:39;5.20;99.90
5560;DHT22;2803;47.916;8.074;2022-12-07T03:54:12;5.00;99.90
5560;DHT22;2803;47.916;8.074;2022-12-07T03:56:41;4.70;99.90
5560;DHT22;2803;47.916;8.074;2022-12-07T03:59:09;4.60;99.90
5560;DHT22;2803;47.916;8.074;2022-12-07T04:01:41;4.50;99.90
5560;DHT22;2803;47.916;8.074;2022-12-07T04:04:08;4.80;99.90
5560;DHT22;2803;47.916;8.074;2022-12-07T04:06:35;5.20;99.90
5560;DHT22;2803;47.916;8.074;2022-12-07T04:09:02;4.80;99.90
5560;DHT22;2803;47.916;8.074;2022-12-07T04:11:30;4.90;99.90
5560;DHT22;2803;47.916;8.074;2022-12-07T04:13:56;5.20;99.90
5560;DHT22;2803;47.916;8.074;2022-12-07T04:16:38;5.30;99.90
5560;DHT22;2803;47.916;8.074;2022-12-07T04:19:05;5.50;99.90
5560;DHT22;2803;47.916;8.074;2022-12-07T04:21:31;5.70;99.90
5560;DHT22;2803;47.916;8.074;2022-12-07T04:23:58;5.60;99.90
5560;DHT22;2803;47.916;8.074;2022-12-07T04:26:25;5.40;99.90
5560;DHT22;2803;47.916;8.074;2022-12-07T04:28:51;5.50;99.90
5560;DHT22;2803;47.916;8.074;2022-12-07T04:31:18;5.70;99.90
5560;DHT22;2803;47.916;8.074;2022-12-07T04:33:46;5.80;99.90
5560;DHT22;2803;47.916;8.074;2022-12-07T04:36:13;5.80;99.90
5560;DHT22;2803;47.916;8.074;2022-12-07T04:38:40;5.80;99.90
5560;DHT22;2803;47.916;8.074;2022-12-07T04:41:08;5.90;99.90
5560;DHT22;2803;47.916;8.074;2022-12-07T04:43:36;5.90;99.90
5560;DHT22;2803;47.916;8.074;2022-12-07T04:46:03;6.00;99.90
5560;DHT22;2803;47.916;8.074;2022-12-07T04:48:30;6.00;99.90
5560;DHT22;2803;47.916;8.074;2022-12-07T04:50:58;5.50;99.90
5560;DHT22;2803;47.916;8.074;2022-12-07T04:53:25;5.70;99.90
5560;DHT22;2803;47.916;8.074;2022-12-07T04:55:52;5.70;99.90
5560;DHT22;2803;47.916;8.074;2022-12-07T04:58:20;5.70;99.90
5560;DHT22;2803;47.916;8.074;2022-12-07T05:00:47;5.80;99.90
5560;DHT22;2803;47.916;8.074;2022-12-07T05:03:14;5.90;99.90
5560;DHT22;2803;47.916;8.074;2022-12-07T05:05:42;5.80;99.90
5560;DHT22;2803;47.916;8.074;2022-12-07T05:08:12;5.60;99.90
5560;DHT22;2803;47.916;8.074;2022-12-07T05:10:39;5.60;99.90
5560;DHT22;2803;47.916;8.074;2022-12-07T05:13:07;5.50;99.90
5560;DHT22;2803;47.916;8.074;2022-12-07T05:15:33;5.20;99.90
5560;DHT22;2803;47.916;8.074;2022-12-07T05:18:00;5.50;99.90
5560;DHT22;2803;47.916;8.074;2022-12-07T05:20:28;5.70;99.90
5560;DHT22;2803;47.916;8.074;2022-12-07T05:22:55;5.90;99.90
5560;DHT22;2803;47.916;8.074;2022-12-07T05:25:25;5.80;99.90
5560;DHT22;2803;47.916;8.074;2022-12-07T05:27:51;5.80;99.90
5560;DHT22;2803;47.916;8.074;2022-12-07T05:30:19;5.90;99.90
5560;DHT22;2803;47.916;8.074;2022-12-07T05:32:45;6.00;99.90
5560;DHT22;2803;47.916;8.074;2022-12-07T05:35:12;6.10;99.90
5560;DHT22;2803;47.916;8.074;2022-12-07T05:37:39;6.20;99.90
5560;DHT22;2803;47.916;8.074;2022-12-07T05:40:10;6.10;99.90
5560;DHT22;2803;47.916;8.074;2022-12-07T05:42:38;6.10;99.90
5560;DHT22;2803;47.916;8.074;2022-12-07T05:45:06;6.20;99.90
5560;DHT22;2803;47.916;8.074;2022-12-07T05:47:33;6.20;99.90
5560;DHT22;2803;47.916;8.074;2022-12-07T05:50:00;6.30;99.90
5560;DHT22;2803;47.916;8.074;2022-12-07T05:52:27;6.20;99.90
5560;DHT22;2803;47.916;8.074;2022-12-07T05:54:54;6.30;99.90
5560;DHT22;2803;47.916;8.074;2022-12-07T05:57:21;6.30;99.90
5560;DHT22;2803;47.916;8.074;2022-12-07T05:59:50;6.30;99.90
5560;DHT22;2803;47.916;8.074;2022-12-07T06:02:16;6.40;99.90
5560;DHT22;2803;47.916;8.074;2022-12-07T06:04:45;6.40;99.90
5560;DHT22;2803;47.916;8.074;2022-12-07T06:07:14;6.30;99.90
5560;DHT22;2803;47.916;8.074;2022-12-07T06:09:42;6.10;99.90
5560;DHT22;2803;47.916;8.074;2022-12-07T06:12:09;6.20;99.90
5560;DHT22;2803;47.916;8.074;2022-12-07T06:14:51;6.20;99.90
5560;DHT22;2803;47.916;8.074;2022-12-07T06:17:18;6.20;99.90
5560;DHT22;2803;47.916;8.074;2022-12-07T06:19:45;6.30;99.90
5560;DHT22;2803;47.916;8.074;2022-12-07T06:22:12;6.30;99.90
5560;DHT22;2803;47.916;8.074;2022-12-07T06:24:39;6.30;99.90
5560;DHT22;2803;47.916;8.074;2022-12-07T06:27:06;6.30;99.90
5560;DHT22;2803;47.916;8.074;2022-12-07T06:29:33;6.30;99.90
5560;DHT22;2803;47.916;8.074;2022-12-07T06:32:01;6.30;99.90
5560;DHT22;2803;47.916;8.074;2022-12-07T06:34:28;6.20;99.90
5560;DHT22;2803;47.916;8.074;2022-12-07T06:36:55;6.20;99.90
5560;DHT22;2803;47.916;8.074;2022-12-07T06:39:23;6.20;99.90
5560;DHT22;2803;47.916;8.074;2022-12-07T06:41:50;6.20;99.90
5560;DHT22;2803;47.916;8.074;2022-12-07T06:44:18;6.30;99.90
5560;DHT22;2803;47.916;8.074;2022-12-07T06:46:45;6.20;99.90
5560;DHT22;2803;47.916;8.074;2022-12-07T06:49:13;6.20;99.90
5560;DHT22;2803;47.916;8.074;2022-12-07T06:51:41;6.10;99.90
5560;DHT22;2803;47.916;8.074;2022-12-07T06:54:08;6.10;99.90
5560;DHT22;2803;47.916;8.074;2022-12-07T06:56:36;6.10;99.90
5560;DHT22;2803;47.916;8.074;2022-12-07T06:59:03;6.10;99.90
5560;DHT22;2803;47.916;8.074;2022-12-07T07:01:30;6.10;99.90
5560;DHT22;2803;47.916;8.074;2022-12-07T07:03:58;6.10;99.90
5560;DHT22;2803;47.916;8.074;2022-12-07T07:06:25;5.90;99.90
5560;DHT22;2803;47.916;8.074;2022-12-07T07:08:52;5.90;99.90
5560;DHT22;2803;47.916;8.074;2022-12-07T07:11:19;6.00;99.90
5560;DHT22;2803;47.916;8.074;2022-12-07T07:13:47;6.00;99.90
5560;DHT22;2803;47.916;8.074;2022-12-07T07:16:15;6.00;99.90
5560;DHT22;2803;47.916;8.074;2022-12-07T07:18:42;6.10;99.90
5560;DHT22;2803;47.916;8.074;2022-12-07T07:21:09;6.10;99.90
5560;DHT22;2803;47.916;8.074;2022-12-07T07:23:38;6.20;99.90
5560;DHT22;2803;47.916;8.074;2022-12-07T07:26:05;6.20;99.90
5560;DHT22;2803;47.916;8.074;2022-12-07T07:28:32;6.10;99.90
5560;DHT22;2803;47.916;8.074;2022-12-07T07:30:59;5.80;99.90
5560;DHT22;2803;47.916;8.074;2022-12-07T07:33:26;5.70;99.90
5560;DHT22;2803;47.916;8.074;2022-12-07T07:35:53;5.70;99.90
5560;DHT22;2803;47.916;8.074;2022-12-07T07:38:23;5.70;99.90
5560;DHT22;2803;47.916;8.074;2022-12-07T07:40:52;5.60;99.90
5560;DHT22;2803;47.916;8.074;2022-12-07T07:43:18;5.60;99.90
5560;DHT22;2803;47.916;8.074;2022-12-07T07:45:46;5.70;99.90
5560;DHT22;2803;47.916;8.074;2022-12-07T07:48:13;5.70;99.90
5560;DHT22;2803;47.916;8.074;2022-12-07T07:50:40;5.80;99.90
5560;DHT22;2803;47.916;8.074;2022-12-07T07:53:06;5.80;99.90
5560;DHT22;2803;47.916;8.074;2022-12-07T07:55:33;5.80;99.90
5560;DHT22;2803;47.916;8.074;2022-12-07T07:58:02;5.70;99.90
5560;DHT22;2803;47.916;8.074;2022-12-07T08:00:28;5.70;99.90
5560;DHT22;2803;47.916;8.074;2022-12-07T08:02:55;5.70;99.90
5560;DHT22;2803;47.916;8.074;2022-12-07T08:05:22;5.60;99.90
5560;DHT22;2803;47.916;8.074;2022-12-07T08:07:49;5.50;99.90
5560;DHT22;2803;47.916;8.074;2022-12-07T08:10:16;5.60;99.90
5560;DHT22;2803;47.916;8.074;2022-12-07T08:12:43;5.60;99.90
5560;DHT22;2803;47.916;8.074;2022-12-07T08:15:26;5.60;99.90
5560;DHT22;2803;47.916;8.074;2022-12-07T08:17:53;5.60;99.90
5560;DHT22;2803;47.916;8.074;2022-12-07T08:20:20;5.50;99.90
5560;DHT22;2803;47.916;8.074;2022-12-07T08:22:47;5.60;99.90
5560;DHT22;2803;47.916;8.074;2022-12-07T08:25:14;5.60;99.90
5560;DHT22;2803;47.916;8.074;2022-12-07T08:27:41;5.60;99.90
5560;DHT22;2803;47.916;8.074;2022-12-07T08:30:08;5.50;99.90
5560;DHT22;2803;47.916;8.074;2022-12-07T08:32:40;5.60;99.90
5560;DHT22;2803;47.916;8.074;2022-12-07T08:35:08;5.50;99.90
5560;DHT22;2803;47.916;8.074;2022-12-07T08:37:35;5.50;99.90
5560;DHT22;2803;47.916;8.074;2022-12-07T08:40:02;5.50;99.90
5560;DHT22;2803;47.916;8.074;2022-12-07T08:42:30;5.50;99.90
5560;DHT22;2803;47.916;8.074;2022-12-07T08:45:05;5.40;99.90
5560;DHT22;2803;47.916;8.074;2022-12-07T08:47:33;5.50;99.90
5560;DHT22;2803;47.916;8.074;2022-12-07T08:50:02;5.50;99.90
5560;DHT22;2803;47.916;8.074;2022-12-07T08:52:31;5.40;99.90
5560;DHT22;2803;47.916;8.074;2022-12-07T08:54:59;5.30;99.90
5560;DHT22;2803;47.916;8.074;2022-12-07T08:57:27;5.30;99.90
5560;DHT22;2803;47.916;8.074;2022-12-07T08:59:55;4.70;99.90
5560;DHT22;2803;47.916;8.074;2022-12-07T09:02:24;4.70;99.90
5560;DHT22;2803;47.916;8.074;2022-12-07T09:04:52;4.90;99.90
5560;DHT22;2803;47.916;8.074;2022-12-07T09:07:23;4.80;99.90
5560;DHT22;2803;47.916;8.074;2022-12-07T09:09:51;4.90;99.90
5560;DHT22;2803;47.916;8.074;2022-12-07T09:12:18;4.80;99.90
5560;DHT22;2803;47.916;8.074;2022-12-07T09:14:44;5.00;99.90
5560;DHT22;2803;47.916;8.074;2022-12-07T09:17:12;5.20;99.90
5560;DHT22;2803;47.916;8.074;2022-12-07T09:19:39;5.10;99.90
5560;DHT22;2803;47.916;8.074;2022-12-07T09:22:08;5.40;99.90
5560;DHT22;2803;47.916;8.074;2022-12-07T09:24:36;5.60;99.90
5560;DHT22;2803;47.916;8.074;2022-12-07T09:27:03;5.80;99.90
5560;DHT22;2803;47.916;8.074;2022-12-07T09:29:30;6.00;99.90
5560;DHT22;2803;47.916;8.074;2022-12-07T09:31:57;6.40;99.90
5560;DHT22;2803;47.916;8.074;2022-12-07T09:34:24;6.50;99.90
5560;DHT22;2803;47.916;8.074;2022-12-07T09:36:51;6.30;99.90
5560;DHT22;2803;47.916;8.074;2022-12-07T09:39:18;6.20;99.90
5560;DHT22;2803;47.916;8.074;2022-12-07T09:41:47;6.40;99.90
5560;DHT22;2803;47.916;8.074;2022-12-07T09:44:17;6.50;99.90
5560;DHT22;2803;47.916;8.074;2022-12-07T09:46:46;6.30;99.90
5560;DHT22;2803;47.916;8.074;2022-12-07T09:49:16;6.30;99.90
5560;DHT22;2803;47.916;8.074;2022-12-07T09:51:44;6.00;99.90
5560;DHT22;2803;47.916;8.074;2022-12-07T09:54:13;6.00;99.90
5560;DHT22;2803;47.916;8.074;2022-12-07T09:56:41;6.20;99.90
5560;DHT22;2803;47.916;8.074;2022-12-07T09:59:16;6.00;99.90
5560;DHT22;2803;47.916;8.074;2022-12-07T10:01:45;5.90;99.90
5560;DHT22;2803;47.916;8.074;2022-12-07T10:04:15;5.90;99.90
5560;DHT22;2803;47.916;8.074;2022-12-07T10:06:43;6.00;99.90
5560;DHT22;2803;47.916;8.074;2022-12-07T10:09:11;7.10;99.90
5560;DHT22;2803;47.916;8.074;2022-12-07T10:12:01;7.70;99.90
5560;DHT22;2803;47.916;8.074;2022-12-07T10:14:32;7.90;99.90
5560;DHT22;2803;47.916;8.074;2022-12-07T10:16:59;8.60;99.90
5560;DHT22;2803;47.916;8.074;2022-12-07T10:19:27;8.60;99.90
5560;DHT22;2803;47.916;8.074;2022-12-07T10:22:10;8.50;99.90
5560;DHT22;2803;47.916;8.074;2022-12-07T10:24:38;9.50;99.90
5560;DHT22;2803;47.916;8.074;2022-12-07T10:27:17;10.30;99.90
5560;DHT22;2803;47.916;8.074;2022-12-07T10:29:50;11.40;99.90
5560;DHT22;2803;47.916;8.074;2022-12-07T10:32:29;11.90;98.30
5560;DHT22;2803;47.916;8.074;2022-12-07T10:35:20;11.90;98.30
5560;DHT22;2803;47.916;8.074;2022-12-07T10:37:48;11.80;98.30
5560;DHT22;2803;47.916;8.074;2022-12-07T10:40:31;12.90;97.00
5560;DHT22;2803;47.916;8.074;2022-12-07T10:43:02;13.40;94.90
5560;DHT22;2803;47.916;8.074;2022-12-07T10:45:32;13.40;95.40
5560;DHT22;2803;47.916;8.074;2022-12-07T10:48:05;13.40;95.70
5560;DHT22;2803;47.916;8.074;2022-12-07T10:50:46;13.20;95.40
5560;DHT22;2803;47.916;8.074;2022-12-07T10:53:24;12.70;95.20
5560;DHT22;2803;47.916;8.074;2022-12-07T10:56:11;11.90;95.50
5560;DHT22;2803;47.916;8.074;2022-12-07T10:58:52;10.50;96.60
5560;DHT22;2803;47.916;8.074;2022-12-07T11:01:26;9.60;98.60
5560;DHT22;2803;47.916;8.074;2022-12-07T11:04:07;9.00;99.60
5560;DHT22;2803;47.916;8.074;2022-12-07T11:06:40;8.50;99.90
5560;DHT22;2803;47.916;8.074;2022-12-07T11:09:34;8.30;99.90
5560;DHT22;2803;47.916;8.074;2022-12-07T11:12:09;7.70;99.90
5560;DHT22;2803;47.916;8.074;2022-12-07T11:14:44;7.20;99.90
5560;DHT22;2803;47.916;8.074;2022-12-07T11:17:22;7.20;99.90
5560;DHT22;2803;47.916;8.074;2022-12-07T11:20:01;7.20;99.90
5560;DHT22;2803;47.916;8.074;2022-12-07T11:22:37;7.20;99.90
5560;DHT22;2803;47.916;8.074;2022-12-07T11:25:18;7.20;99.90
5560;DHT22;2803;47.916;8.074;2022-12-07T11:27:52;7.20;99.90
5560;DHT22;2803;47.916;8.074;2022-12-07T11:30:29;7.20;99.90
5560;DHT22;2803;47.916;8.074;2022-12-07T11:33:17;7.10;99.90
5560;DHT22;2803;47.916;8.074;2022-12-07T11:36:02;6.90;99.90
5560;DHT22;2803;47.916;8.074;2022-12-07T11:38:37;6.90;99.90
5560;DHT22;2803;47.916;8.074;2022-12-07T11:41:05;7.00;99.90
5560;DHT22;2803;47.916;8.074;2022-12-07T11:43:50;7.00;99.90
5560;DHT22;2803;47.916;8.074;2022-12-07T11:46:20;6.80;99.90
5560;DHT22;2803;47.916;8.074;2022-12-07T11:48:57;6.70;99.90
5560;DHT22;2803;47.916;8.074;2022-12-07T11:51:25;6.60;99.90
5560;DHT22;2803;47.916;8.074;2022-12-07T11:53:57;6.80;99.90
5560;DHT22;2803;47.916;8.074;2022-12-07T11:56:27;6.80;99.90
5560;DHT22;2803;47.916;8.074;2022-12-07T11:58:59;6.70;99.90
5560;DHT22;2803;47.916;8.074;2022-12-07T12:01:38;6.60;99.90
5560;DHT22;2803;47.916;8.074;2022-12-07T12:04:20;6.60;99.90
5560;DHT22;2803;47.916;8.074;2022-12-07T12:06:48;6.40;99.90
5560;DHT22;2803;47.916;8.074;2022-12-07T12:09:19;6.30;99.90
5560;DHT22;2803;47.916;8.074;2022-12-07T12:12:01;6.40;99.90
5560;DHT22;2803;47.916;8.074;2022-12-07T12:14:41;6.50;99.90
5560;DHT22;2803;47.916;8.074;2022-12-07T12:17:32;6.40;99.90
5560;DHT22;2803;47.916;8.074;2022-12-07T12:20:14;6.30;99.90
5560;DHT22;2803;47.916;8.074;2022-12-07T12:22:50;5.90;99.90
5560;DHT22;2803;47.916;8.074;2022-12-07T12:25:23;6.00;99.90
5560;DHT22;2803;47.916;8.074;2022-12-07T12:27:54;6.00;99.90
5560;DHT22;2803;47.916;8.074;2022-12-07T12:30:31;6.20;99.90
5560;DHT22;2803;47.916;8.074;2022-12-07T12:33:06;6.20;99.90
5560;DHT22;2803;47.916;8.074;2022-12-07T12:35:41;6.20;99.90
5560;DHT22;2803;47.916;8.074;2022-12-07T12:38:25;6.30;99.90
5560;DHT22;2803;47.916;8.074;2022-12-07T12:40:54;6.20;99.90
5560;DHT22;2803;47.916;8.074;2022-12-07T12:43:40;6.30;99.90
5560;DHT22;2803;47.916;8.074;2022-12-07T12:49:34;6.20;99.90
5560;DHT22;2803;47.916;8.074;2022-12-07T12:55:13;6.20;99.90
5560;DHT22;2803;47.916;8.074;2022-12-07T12:57:44;6.20;99.90
5560;DHT22;2803;47.916;8.074;2022-12-07T13:00:16;6.20;99.90
5560;DHT22;2803;47.916;8.074;2022-12-07T13:02:49;6.30;99.90
5560;DHT22;2803;47.916;8.074;2022-12-07T13:05:19;6.10;99.90
5560;DHT22;2803;47.916;8.074;2022-12-07T13:07:54;6.10;99.90
5560;DHT22;2803;47.916;8.074;2022-12-07T13:10:33;6.20;99.90
5560;DHT22;2803;47.916;8.074;2022-12-07T13:13:03;6.30;99.90
5560;DHT22;2803;47.916;8.074;2022-12-07T13:15:35;6.40;99.90
5560;DHT22;2803;47.916;8.074;2022-12-07T13:18:21;6.40;99.90
5560;DHT22;2803;47.916;8.074;2022-12-07T13:20:52;6.40;99.90
5560;DHT22;2803;47.916;8.074;2022-12-07T13:23:23;6.40;99.90
5560;DHT22;2803;47.916;8.074;2022-12-07T13:25:56;6.30;99.90
5560;DHT22;2803;47.916;8.074;2022-12-07T13:28:27;6.30;99.90
5560;DHT22;2803;47.916;8.074;2022-12-07T13:31:11;6.30;99.90
5560;DHT22;2803;47.916;8.074;2022-12-07T13:33:41;6.40;99.90
5560;DHT22;2803;47.916;8.074;2022-12-07T13:36:16;6.30;99.90
5560;DHT22;2803;47.916;8.074;2022-12-07T13:38:51;6.20;99.90
5560;DHT22;2803;47.916;8.074;2022-12-07T13:41:22;6.20;99.90
5560;DHT22;2803;47.916;8.074;2022-12-07T13:43:53;6.30;99.90
5560;DHT22;2803;47.916;8.074;2022-12-07T13:46:25;6.20;99.90
5560;DHT22;2803;47.916;8.074;2022-12-07T13:48:55;6.20;99.90
5560;DHT22;2803;47.916;8.074;2022-12-07T13:51:25;6.20;99.90
5560;DHT22;2803;47.916;8.074;2022-12-07T13:53:56;6.20;99.90
5560;DHT22;2803;47.916;8.074;2022-12-07T13:56:32;6.20;99.90
5560;DHT22;2803;47.916;8.074;2022-12-07T13:59:00;6.20;99.90
5560;DHT22;2803;47.916;8.074;2022-12-07T14:01:28;6.10;99.90
5560;DHT22;2803;47.916;8.074;2022-12-07T14:04:17;6.00;99.90
5560;DHT22;2803;47.916;8.074;2022-12-07T14:06:48;6.10;99.90
5560;DHT22;2803;47.916;8.074;2022-12-07T14:09:21;6.20;99.90
5560;DHT22;2803;47.916;8.074;2022-12-07T14:11:51;6.20;99.90
5560;DHT22;2803;47.916;8.074;2022-12-07T14:14:21;6.20;99.90
5560;DHT22;2803;47.916;8.074;2022-12-07T14:16:58;6.20;99.90
5560;DHT22;2803;47.916;8.074;2022-12-07T14:19:41;6.20;99.90
5560;DHT22;2803;47.916;8.074;2022-12-07T14:22:15;6.30;99.90
5560;DHT22;2803;47.916;8.074;2022-12-07T14:24:46;6.30;99.90
5560;DHT22;2803;47.916;8.074;2022-12-07T14:27:18;6.30;99.90
5560;DHT22;2803;47.916;8.074;2022-12-07T14:29:45;6.50;99.90
5560;DHT22;2803;47.916;8.074;2022-12-07T14:32:19;6.50;99.90
5560;DHT22;2803;47.916;8.074;2022-12-07T14:34:57;6.50;99.90
5560;DHT22;2803;47.916;8.074;2022-12-07T14:37:25;6.60;99.90
5560;DHT22;2803;47.916;8.074;2022-12-07T14:39:54;6.70;99.90
5560;DHT22;2803;47.916;8.074;2022-12-07T14:42:24;6.70;99.90
5560;DHT22;2803;47.916;8.074;2022-12-07T14:44:52;6.50;99.90
5560;DHT22;2803;47.916;8.074;2022-12-07T14:47:19;6.40;99.90
5560;DHT22;2803;47.916;8.074;2022-12-07T14:49:46;6.30;99.90
5560;DHT22;2803;47.916;8.074;2022-12-07T14:52:16;6.30;99.90
5560;DHT22;2803;47.916;8.074;2022-12-07T14:54:44;6.30;99.90
5560;DHT22;2803;47.916;8.074;2022-12-07T14:57:12;6.50;99.90
5560;DHT22;2803;47.916;8.074;2022-12-07T14:59:40;6.60;99.90
5560;DHT22;2803;47.916;8.074;2022-12-07T15:02:11;6.60;99.90
5560;DHT22;2803;47.916;8.074;2022-12-07T15:04:39;6.60;99.90
5560;DHT22;2803;47.916;8.074;2022-12-07T15:07:14;6.60;99.90
5560;DHT22;2803;47.916;8.074;2022-12-07T15:09:42;6.60;99.90
5560;DHT22;2803;47.916;8.074;2022-12-07T15:12:14;6.60;99.90
5560;DHT22;2803;47.916;8.074;2022-12-07T15:14:42;6.40;99.90
5560;DHT22;2803;47.916;8.074;2022-12-07T15:17:11;6.40;99.90
5560;DHT22;2803;47.916;8.074;2022-12-07T15:19:39;6.50;99.90
5560;DHT22;2803;47.916;8.074;2022-12-07T15:22:08;6.50;99.90
5560;DHT22;2803;47.916;8.074;2022-12-07T15:24:38;6.60;99.90
5560;DHT22;2803;47.916;8.074;2022-12-07T15:27:07;6.60;99.90
5560;DHT22;2803;47.916;8.074;2022-12-07T15:29:36;6.50;99.90
5560;DHT22;2803;47.916;8.074;2022-12-07T15:32:03;6.50;99.90
5560;DHT22;2803;47.916;8.074;2022-12-07T15:34:30;6.60;99.90
5560;DHT22;2803;47.916;8.074;2022-12-07T15:36:57;6.60;99.90
5560;DHT22;2803;47.916;8.074;2022-12-07T15:39:24;6.60;99.90
5560;DHT22;2803;47.916;8.074;2022-12-07T15:41:50;6.50;99.90
5560;DHT22;2803;47.916;8.074;2022-12-07T15:44:17;6.50;99.90
5560;DHT22;2803;47.916;8.074;2022-12-07T15:46:59;6.50;99.90
5560;DHT22;2803;47.916;8.074;2022-12-07T15:49:28;6.50;99.90
5560;DHT22;2803;47.916;8.074;2022-12-07T15:51:54;6.50;99.90
5560;DHT22;2803;47.916;8.074;2022-12-07T15:54:23;6.50;99.90
5560;DHT22;2803;47.916;8.074;2022-12-07T15:56:49;6.50;99.90
5560;DHT22;2803;47.916;8.074;2022-12-07T15:59:16;6.40;99.90
5560;DHT22;2803;47.916;8.074;2022-12-07T16:01:43;6.30;99.90
5560;DHT22;2803;47.916;8.074;2022-12-07T16:04:11;6.40;99.90
5560;DHT22;2803;47.916;8.074;2022-12-07T16:06:38;6.50;99.90
5560;DHT22;2803;47.916;8.074;2022-12-07T16:09:05;6.40;99.90
5560;DHT22;2803;47.916;8.074;2022-12-07T16:11:32;6.40;99.90
5560;DHT22;2803;47.916;8.074;2022-12-07T16:13:59;6.40;99.90
5560;DHT22;2803;47.916;8.074;2022-12-07T16:16:26;6.40;99.90
5560;DHT22;2803;47.916;8.074;2022-12-07T16:18:53;6.30;99.90
5560;DHT22;2803;47.916;8.074;2022-12-07T16:21:22;6.30;99.90
5560;DHT22;2803;47.916;8.074;2022-12-07T16:23:48;6.40;99.90
5560;DHT22;2803;47.916;8.074;2022-12-07T16:26:17;6.40;99.90
5560;DHT22;2803;47.916;8.074;2022-12-07T16:28:44;6.30;99.90
5560;DHT22;2803;47.916;8.074;2022-12-07T16:31:12;6.20;99.90
5560;DHT22;2803;47.916;8.074;2022-12-07T16:33:41;6.10;99.90
5560;DHT22;2803;47.916;8.074;2022-12-07T16:36:09;6.10;99.90
5560;DHT22;2803;47.916;8.074;2022-12-07T16:38:37;6.00;99.90
5560;DHT22;2803;47.916;8.074;2022-12-07T16:41:05;5.90;99.90
5560;DHT22;2803;47.916;8.074;2022-12-07T16:43:33;5.60;99.90